TJNR/NRR METAR and TAF weather

Enter ICAO airport designator
Station Type Date Time Source
TJNR METAR 2019/10/23 06:53 UTC NOAA

TJNR 230653Z AUTO 00000KT 10SM FEW028 FEW047 25/24 A2989 RMK AO2 SLP123 T02500239


Station Type Date Time Source
TJNR Decoded METAR 2019/10/23 06:53 UTC NOAA

ROOSEVELT ROADS PUERTO RICO, PR, United States (TJNR) 18-15N 65-38W 10M
Oct 23, 2019 - 02:53 AM EDT / 2019.10.23 0653 UTC
Wind: Calm:0
Visibility: 10 mile(s):0
Sky conditions: mostly clear
Temperature: 77.0 F (25.0 C)
Dew Point: 75.0 F (23.9 C)
Relative Humidity: 93%
Pressure (altimeter): 29.89 in. Hg (1012 hPa)
ob: TJNR 230653Z AUTO 00000KT 10SM FEW028 FEW047 25/24 A2989 RMK AO2 SLP123 T02500239
cycle: 7

Station Type Date Time Source
TJNR TAF UTC NOAA

Error!

Example: see airport list